sensor_id;sensor_type;location;lat;lon;timestamp;temperature;humidity
71436;SHT31;59251;51.326;12.370;2022-08-19T00:00:11;19.57;97.39
71436;SHT31;59251;51.326;12.370;2022-08-19T00:02:40;19.56;97.45
71436;SHT31;59251;51.326;12.370;2022-08-19T00:05:07;19.60;97.64
71436;SHT31;59251;51.326;12.370;2022-08-19T00:07:33;19.57;97.67
71436;SHT31;59251;51.326;12.370;2022-08-19T00:13:14;19.56;97.28
71436;SHT31;59251;51.326;12.370;2022-08-19T00:15:40;19.64;97.71
71436;SHT31;59251;51.326;12.370;2022-08-19T00:18:10;19.64;97.61
71436;SHT31;59251;51.326;12.370;2022-08-19T00:20:35;19.67;97.60
71436;SHT31;59251;51.326;12.370;2022-08-19T00:23:03;19.63;97.70
71436;SHT31;59251;51.326;12.370;2022-08-19T00:25:29;19.64;97.70
71436;SHT31;59251;51.326;12.370;2022-08-19T00:27:54;19.60;97.65
71436;SHT31;59251;51.326;12.370;2022-08-19T00:30:19;19.54;97.75
71436;SHT31;59251;51.326;12.370;2022-08-19T00:32:45;19.54;97.63
71436;SHT31;59251;51.326;12.370;2022-08-19T00:35:10;19.57;97.63
71436;SHT31;59251;51.326;12.370;2022-08-19T00:37:36;19.56;97.51
71436;SHT31;59251;51.326;12.370;2022-08-19T00:40:05;19.61;97.30
71436;SHT31;59251;51.326;12.370;2022-08-19T00:42:30;19.67;97.42
71436;SHT31;59251;51.326;12.370;2022-08-19T00:44:56;19.64;97.39
71436;SHT31;59251;51.326;12.370;2022-08-19T00:47:21;19.63;97.70
71436;SHT31;59251;51.326;12.370;2022-08-19T00:49:50;19.69;97.74
71436;SHT31;59251;51.326;12.370;2022-08-19T00:52:22;19.61;97.70
71436;SHT31;59251;51.326;12.370;2022-08-19T00:54:49;19.64;97.65
71436;SHT31;59251;51.326;12.370;2022-08-19T00:57:17;19.60;97.71
71436;SHT31;59251;51.326;12.370;2022-08-19T00:59:46;19.63;97.74
71436;SHT31;59251;51.326;12.370;2022-08-19T01:02:12;19.61;97.85
71436;SHT31;59251;51.326;12.370;2022-08-19T01:04:37;19.61;97.77
71436;SHT31;59251;51.326;12.370;2022-08-19T01:07:03;19.64;97.85
71436;SHT31;59251;51.326;12.370;2022-08-19T01:09:29;19.50;98.06
71436;SHT31;59251;51.326;12.370;2022-08-19T01:11:56;19.50;98.22
71436;SHT31;59251;51.326;12.370;2022-08-19T01:14:21;19.60;98.42
71436;SHT31;59251;51.326;12.370;2022-08-19T01:16:47;19.46;98.30
71436;SHT31;59251;51.326;12.370;2022-08-19T01:19:21;19.54;98.34
71436;SHT31;59251;51.326;12.370;2022-08-19T01:21:55;19.53;98.28
71436;SHT31;59251;51.326;12.370;2022-08-19T01:24:22;19.51;98.21
71436;SHT31;59251;51.326;12.370;2022-08-19T01:26:48;19.49;98.23
71436;SHT31;59251;51.326;12.370;2022-08-19T01:29:13;19.50;98.16
71436;SHT31;59251;51.326;12.370;2022-08-19T01:31:39;19.49;98.25
71436;SHT31;59251;51.326;12.370;2022-08-19T01:34:05;19.45;98.33
71436;SHT31;59251;51.326;12.370;2022-08-19T01:36:40;19.49;98.42
71436;SHT31;59251;51.326;12.370;2022-08-19T01:39:10;19.43;98.60
71436;SHT31;59251;51.326;12.370;2022-08-19T01:41:36;19.43;98.75
71436;SHT31;59251;51.326;12.370;2022-08-19T01:44:02;19.42;98.88
71436;SHT31;59251;51.326;12.370;2022-08-19T01:46:30;19.42;98.81
71436;SHT31;59251;51.326;12.370;2022-08-19T01:48:56;19.43;98.85
71436;SHT31;59251;51.326;12.370;2022-08-19T01:51:21;19.43;98.93
71436;SHT31;59251;51.326;12.370;2022-08-19T01:53:50;19.40;98.89
71436;SHT31;59251;51.326;12.370;2022-08-19T01:56:17;19.37;98.85
71436;SHT31;59251;51.326;12.370;2022-08-19T01:58:47;19.40;98.96
71436;SHT31;59251;51.326;12.370;2022-08-19T02:01:14;19.40;99.01
71436;SHT31;59251;51.326;12.370;2022-08-19T02:03:40;19.45;99.01
71436;SHT31;59251;51.326;12.370;2022-08-19T02:06:06;19.42;98.86
71436;SHT31;59251;51.326;12.370;2022-08-19T02:08:33;19.36;98.77
71436;SHT31;59251;51.326;12.370;2022-08-19T02:10:59;19.39;98.87
71436;SHT31;59251;51.326;12.370;2022-08-19T02:13:25;19.47;98.97
71436;SHT31;59251;51.326;12.370;2022-08-19T02:15:51;19.43;98.79
71436;SHT31;59251;51.326;12.370;2022-08-19T02:18:16;19.46;98.81
71436;SHT31;59251;51.326;12.370;2022-08-19T02:20:43;19.42;98.86
71436;SHT31;59251;51.326;12.370;2022-08-19T02:23:11;19.37;98.78
71436;SHT31;59251;51.326;12.370;2022-08-19T02:25:37;19.39;98.79
71436;SHT31;59251;51.326;12.370;2022-08-19T02:28:03;19.47;98.84
71436;SHT31;59251;51.326;12.370;2022-08-19T02:30:29;19.49;98.74
71436;SHT31;59251;51.326;12.370;2022-08-19T02:32:55;19.49;98.66
71436;SHT31;59251;51.326;12.370;2022-08-19T02:35:21;19.49;98.66
71436;SHT31;59251;51.326;12.370;2022-08-19T02:37:47;19.51;98.50
71436;SHT31;59251;51.326;12.370;2022-08-19T02:40:32;19.49;98.48
71436;SHT31;59251;51.326;12.370;2022-08-19T02:43:05;19.49;98.50
71436;SHT31;59251;51.326;12.370;2022-08-19T02:45:38;19.50;98.56
71436;SHT31;59251;51.326;12.370;2022-08-19T02:48:04;19.47;98.52
71436;SHT31;59251;51.326;12.370;2022-08-19T02:50:31;19.47;98.48
71436;SHT31;59251;51.326;12.370;2022-08-19T02:52:56;19.51;98.57
71436;SHT31;59251;51.326;12.370;2022-08-19T02:55:22;19.53;98.58
71436;SHT31;59251;51.326;12.370;2022-08-19T02:57:48;19.53;98.37
71436;SHT31;59251;51.326;12.370;2022-08-19T03:00:14;19.53;98.43
71436;SHT31;59251;51.326;12.370;2022-08-19T03:02:40;19.50;98.27
71436;SHT31;59251;51.326;12.370;2022-08-19T03:05:07;19.56;98.34
71436;SHT31;59251;51.326;12.370;2022-08-19T03:07:32;19.51;98.11
71436;SHT31;59251;51.326;12.370;2022-08-19T03:09:58;19.61;98.34
71436;SHT31;59251;51.326;12.370;2022-08-19T03:12:24;19.63;98.32
71436;SHT31;59251;51.326;12.370;2022-08-19T03:14:49;19.63;98.22
71436;SHT31;59251;51.326;12.370;2022-08-19T03:17:16;19.66;98.01
71436;SHT31;59251;51.326;12.370;2022-08-19T03:19:41;19.64;98.00
71436;SHT31;59251;51.326;12.370;2022-08-19T03:22:08;19.56;97.67
71436;SHT31;59251;51.326;12.370;2022-08-19T03:24:34;19.64;97.87
71436;SHT31;59251;51.326;12.370;2022-08-19T03:26:59;19.64;97.90
71436;SHT31;59251;51.326;12.370;2022-08-19T03:29:30;19.66;97.93
71436;SHT31;59251;51.326;12.370;2022-08-19T03:31:58;19.64;97.65
71436;SHT31;59251;51.326;12.370;2022-08-19T03:34:28;19.70;97.84
71436;SHT31;59251;51.326;12.370;2022-08-19T03:36:55;19.70;97.41
71436;SHT31;59251;51.326;12.370;2022-08-19T03:39:22;19.69;97.68
71436;SHT31;59251;51.326;12.370;2022-08-19T03:41:49;19.67;97.88
71436;SHT31;59251;51.326;12.370;2022-08-19T03:44:21;19.53;97.81
71436;SHT31;59251;51.326;12.370;2022-08-19T03:46:50;19.63;98.04
71436;SHT31;59251;51.326;12.370;2022-08-19T03:49:16;19.67;97.81
71436;SHT31;59251;51.326;12.370;2022-08-19T03:51:42;19.59;97.74
71436;SHT31;59251;51.326;12.370;2022-08-19T03:54:11;19.56;97.48
71436;SHT31;59251;51.326;12.370;2022-08-19T03:56:38;19.56;97.68
71436;SHT31;59251;51.326;12.370;2022-08-19T03:59:07;19.53;98.00
71436;SHT31;59251;51.326;12.370;2022-08-19T04:01:34;19.59;98.24
71436;SHT31;59251;51.326;12.370;2022-08-19T04:04:00;19.42;98.29
71436;SHT31;59251;51.326;12.370;2022-08-19T04:06:29;19.53;98.31
71436;SHT31;59251;51.326;12.370;2022-08-19T04:08:56;19.50;98.11
71436;SHT31;59251;51.326;12.370;2022-08-19T04:11:28;19.60;97.97
71436;SHT31;59251;51.326;12.370;2022-08-19T04:13:55;19.56;98.16
71436;SHT31;59251;51.326;12.370;2022-08-19T04:16:22;19.46;98.17
71436;SHT31;59251;51.326;12.370;2022-08-19T04:18:49;19.43;97.75
71436;SHT31;59251;51.326;12.370;2022-08-19T04:21:17;19.54;97.66
71436;SHT31;59251;51.326;12.370;2022-08-19T04:23:43;19.57;97.63
71436;SHT31;59251;51.326;12.370;2022-08-19T04:26:16;19.50;97.64
71436;SHT31;59251;51.326;12.370;2022-08-19T04:28:43;19.47;97.72
71436;SHT31;59251;51.326;12.370;2022-08-19T04:31:13;19.57;97.84
71436;SHT31;59251;51.326;12.370;2022-08-19T04:33:40;19.45;97.78
71436;SHT31;59251;51.326;12.370;2022-08-19T04:36:06;19.60;97.72
71436;SHT31;59251;51.326;12.370;2022-08-19T04:38:33;19.59;97.47
71436;SHT31;59251;51.326;12.370;2022-08-19T04:40:58;19.60;97.54
71436;SHT31;59251;51.326;12.370;2022-08-19T04:43:44;19.60;97.59
71436;SHT31;59251;51.326;12.370;2022-08-19T04:46:12;19.53;97.38
71436;SHT31;59251;51.326;12.370;2022-08-19T04:48:39;19.59;97.76
71436;SHT31;59251;51.326;12.370;2022-08-19T04:51:10;19.73;97.51
71436;SHT31;59251;51.326;12.370;2022-08-19T04:53:38;19.69;97.74
71436;SHT31;59251;51.326;12.370;2022-08-19T04:56:14;19.69;97.63
71436;SHT31;59251;51.326;12.370;2022-08-19T04:58:42;19.75;97.57
71436;SHT31;59251;51.326;12.370;2022-08-19T05:03:35;19.70;97.08
71436;SHT31;59251;51.326;12.370;2022-08-19T05:06:08;19.66;96.94
71436;SHT31;59251;51.326;12.370;2022-08-19T05:08:37;19.71;97.19
71436;SHT31;59251;51.326;12.370;2022-08-19T05:13:37;19.82;96.48
71436;SHT31;59251;51.326;12.370;2022-08-19T05:16:02;19.94;96.34
71436;SHT31;59251;51.326;12.370;2022-08-19T05:18:28;19.95;96.24
71436;SHT31;59251;51.326;12.370;2022-08-19T05:21:14;19.90;96.37
71436;SHT31;59251;51.326;12.370;2022-08-19T05:23:58;19.85;96.71
71436;SHT31;59251;51.326;12.370;2022-08-19T05:26:25;19.90;96.69
71436;SHT31;59251;51.326;12.370;2022-08-19T05:28:52;19.82;96.87
71436;SHT31;59251;51.326;12.370;2022-08-19T05:31:18;19.90;96.37
71436;SHT31;59251;51.326;12.370;2022-08-19T05:33:44;19.97;96.39
71436;SHT31;59251;51.326;12.370;2022-08-19T05:36:10;19.85;96.59
71436;SHT31;59251;51.326;12.370;2022-08-19T05:38:35;19.99;96.11
71436;SHT31;59251;51.326;12.370;2022-08-19T05:41:09;20.02;95.99
71436;SHT31;59251;51.326;12.370;2022-08-19T05:43:35;20.12;95.66
71436;SHT31;59251;51.326;12.370;2022-08-19T05:46:00;20.07;95.38
71436;SHT31;59251;51.326;12.370;2022-08-19T05:48:26;20.21;95.12
71436;SHT31;59251;51.326;12.370;2022-08-19T05:50:51;20.11;95.54
71436;SHT31;59251;51.326;12.370;2022-08-19T05:53:17;20.08;95.07
71436;SHT31;59251;51.326;12.370;2022-08-19T05:55:43;19.91;96.02
71436;SHT31;59251;51.326;12.370;2022-08-19T05:58:08;19.97;95.84
71436;SHT31;59251;51.326;12.370;2022-08-19T06:00:35;19.82;95.73
71436;SHT31;59251;51.326;12.370;2022-08-19T06:03:01;19.98;95.34
71436;SHT31;59251;51.326;12.370;2022-08-19T06:05:29;20.07;95.14
71436;SHT31;59251;51.326;12.370;2022-08-19T06:07:55;20.02;95.23
71436;SHT31;59251;51.326;12.370;2022-08-19T06:10:21;20.01;94.78
71436;SHT31;59251;51.326;12.370;2022-08-19T06:12:47;20.17;94.63
71436;SHT31;59251;51.326;12.370;2022-08-19T06:15:13;20.22;94.39
71436;SHT31;59251;51.326;12.370;2022-08-19T06:17:39;20.17;94.72
71436;SHT31;59251;51.326;12.370;2022-08-19T06:20:07;20.22;94.55
71436;SHT31;59251;51.326;12.370;2022-08-19T06:22:41;20.30;94.23
71436;SHT31;59251;51.326;12.370;2022-08-19T06:25:07;20.21;94.08
71436;SHT31;59251;51.326;12.370;2022-08-19T06:27:34;20.33;94.05
71436;SHT31;59251;51.326;12.370;2022-08-19T06:30:01;20.24;94.16
71436;SHT31;59251;51.326;12.370;2022-08-19T06:32:27;20.25;94.58
71436;SHT31;59251;51.326;12.370;2022-08-19T06:34:52;20.38;93.62
71436;SHT31;59251;51.326;12.370;2022-08-19T06:37:18;20.35;93.80
71436;SHT31;59251;51.326;12.370;2022-08-19T06:39:44;20.29;93.69
71436;SHT31;59251;51.326;12.370;2022-08-19T06:42:11;20.24;93.39
71436;SHT31;59251;51.326;12.370;2022-08-19T06:44:40;20.35;93.19
71436;SHT31;59251;51.326;12.370;2022-08-19T06:47:08;20.29;93.17
71436;SHT31;59251;51.326;12.370;2022-08-19T06:49:35;20.17;94.04
71436;SHT31;59251;51.326;12.370;2022-08-19T06:52:01;20.26;93.96
71436;SHT31;59251;51.326;12.370;2022-08-19T06:54:27;20.24;93.64
71436;SHT31;59251;51.326;12.370;2022-08-19T06:56:59;20.21;94.08
71436;SHT31;59251;51.326;12.370;2022-08-19T06:59:28;20.15;94.21
71436;SHT31;59251;51.326;12.370;2022-08-19T07:01:55;19.88;94.35
71436;SHT31;59251;51.326;12.370;2022-08-19T07:04:30;20.04;94.35
71436;SHT31;59251;51.326;12.370;2022-08-19T07:06:59;19.98;94.11
71436;SHT31;59251;51.326;12.370;2022-08-19T07:09:25;19.98;93.76
71436;SHT31;59251;51.326;12.370;2022-08-19T07:11:52;19.99;93.72
71436;SHT31;59251;51.326;12.370;2022-08-19T07:14:20;20.11;93.46
71436;SHT31;59251;51.326;12.370;2022-08-19T07:16:48;20.08;93.69
71436;SHT31;59251;51.326;12.370;2022-08-19T07:19:15;19.99;93.76
71436;SHT31;59251;51.326;12.370;2022-08-19T07:21:41;19.98;93.84
71436;SHT31;59251;51.326;12.370;2022-08-19T07:24:06;19.99;94.02
71436;SHT31;59251;51.326;12.370;2022-08-19T07:26:37;20.11;93.16
71436;SHT31;59251;51.326;12.370;2022-08-19T07:29:04;20.17;93.26
71436;SHT31;59251;51.326;12.370;2022-08-19T07:31:29;19.82;94.39
71436;SHT31;59251;51.326;12.370;2022-08-19T07:33:55;19.99;94.21
71436;SHT31;59251;51.326;12.370;2022-08-19T07:36:26;20.21;92.66
71436;SHT31;59251;51.326;12.370;2022-08-19T07:38:59;20.19;92.52
71436;SHT31;59251;51.326;12.370;2022-08-19T07:41:27;20.17;92.74
71436;SHT31;59251;51.326;12.370;2022-08-19T07:43:54;20.25;92.84
71436;SHT31;59251;51.326;12.370;2022-08-19T07:46:20;20.14;92.94
71436;SHT31;59251;51.326;12.370;2022-08-19T07:48:48;20.04;93.35
71436;SHT31;59251;51.326;12.370;2022-08-19T07:51:17;20.19;92.59
71436;SHT31;59251;51.326;12.370;2022-08-19T07:53:44;20.12;93.10
71436;SHT31;59251;51.326;12.370;2022-08-19T07:56:12;20.32;92.53
71436;SHT31;59251;51.326;12.370;2022-08-19T07:58:41;20.05;93.17
71436;SHT31;59251;51.326;12.370;2022-08-19T08:01:10;20.28;92.61
71436;SHT31;59251;51.326;12.370;2022-08-19T08:03:36;20.32;92.11
71436;SHT31;59251;51.326;12.370;2022-08-19T08:06:20;20.56;91.40
71436;SHT31;59251;51.326;12.370;2022-08-19T08:09:04;20.56;91.19
71436;SHT31;59251;51.326;12.370;2022-08-19T08:11:44;20.46;91.72
71436;SHT31;59251;51.326;12.370;2022-08-19T08:14:15;20.19;92.31
71436;SHT31;59251;51.326;12.370;2022-08-19T08:16:41;20.33;92.01
71436;SHT31;59251;51.326;12.370;2022-08-19T08:19:09;20.39;91.83
71436;SHT31;59251;51.326;12.370;2022-08-19T08:21:34;20.30;92.03
71436;SHT31;59251;51.326;12.370;2022-08-19T08:24:00;20.52;91.36
71436;SHT31;59251;51.326;12.370;2022-08-19T08:26:26;20.19;92.32
71436;SHT31;59251;51.326;12.370;2022-08-19T08:28:52;20.17;92.44
71436;SHT31;59251;51.326;12.370;2022-08-19T08:31:18;19.98;92.41
71436;SHT31;59251;51.326;12.370;2022-08-19T08:33:45;19.97;93.13
71436;SHT31;59251;51.326;12.370;2022-08-19T08:36:12;20.19;92.73
71436;SHT31;59251;51.326;12.370;2022-08-19T08:38:39;20.52;91.58
71436;SHT31;59251;51.326;12.370;2022-08-19T08:41:11;20.15;92.48
71436;SHT31;59251;51.326;12.370;2022-08-19T08:43:45;20.35;91.83
71436;SHT31;59251;51.326;12.370;2022-08-19T08:46:24;20.30;91.29
71436;SHT31;59251;51.326;12.370;2022-08-19T08:54:06;20.25;91.89
71436;SHT31;59251;51.326;12.370;2022-08-19T08:56:32;19.98;92.35
71436;SHT31;59251;51.326;12.370;2022-08-19T08:59:16;20.39;91.15
71436;SHT31;59251;51.326;12.370;2022-08-19T09:01:44;20.36;91.20
71436;SHT31;59251;51.326;12.370;2022-08-19T09:04:11;20.40;90.60
71436;SHT31;59251;51.326;12.370;2022-08-19T09:09:20;20.19;91.61
71436;SHT31;59251;51.326;12.370;2022-08-19T09:14:48;20.33;90.80
71436;SHT31;59251;51.326;12.370;2022-08-19T09:17:15;20.69;89.21
71436;SHT31;59251;51.326;12.370;2022-08-19T09:22:19;20.60;89.51
71436;SHT31;59251;51.326;12.370;2022-08-19T09:24:50;20.40;89.37
71436;SHT31;59251;51.326;12.370;2022-08-19T09:27:18;20.46;89.24
71436;SHT31;59251;51.326;12.370;2022-08-19T09:29:44;20.67;88.84
71436;SHT31;59251;51.326;12.370;2022-08-19T09:32:09;20.60;88.85
71436;SHT31;59251;51.326;12.370;2022-08-19T09:34:35;20.65;89.23
71436;SHT31;59251;51.326;12.370;2022-08-19T09:37:00;21.05;87.41
71436;SHT31;59251;51.326;12.370;2022-08-19T09:39:26;20.91;88.07
71436;SHT31;59251;51.326;12.370;2022-08-19T09:41:51;20.84;87.87
71436;SHT31;59251;51.326;12.370;2022-08-19T09:44:18;21.20;86.84
71436;SHT31;59251;51.326;12.370;2022-08-19T09:46:45;21.07;87.31
71436;SHT31;59251;51.326;12.370;2022-08-19T09:49:12;20.97;87.44
71436;SHT31;59251;51.326;12.370;2022-08-19T09:51:37;21.24;86.29
71436;SHT31;59251;51.326;12.370;2022-08-19T09:54:03;21.27;85.98
71436;SHT31;59251;51.326;12.370;2022-08-19T09:56:29;20.87;87.63
71436;SHT31;59251;51.326;12.370;2022-08-19T09:58:58;21.10;86.29
71436;SHT31;59251;51.326;12.370;2022-08-19T10:01:26;20.98;86.81
71436;SHT31;59251;51.326;12.370;2022-08-19T10:03:54;20.95;86.02
71436;SHT31;59251;51.326;12.370;2022-08-19T10:06:22;20.81;87.65
71436;SHT31;59251;51.326;12.370;2022-08-19T10:08:48;20.62;87.30
71436;SHT31;59251;51.326;12.370;2022-08-19T10:11:14;21.08;86.20
71436;SHT31;59251;51.326;12.370;2022-08-19T10:13:42;21.51;84.67
71436;SHT31;59251;51.326;12.370;2022-08-19T10:16:10;21.75;84.02
71436;SHT31;59251;51.326;12.370;2022-08-19T10:18:37;21.45;84.41
71436;SHT31;59251;51.326;12.370;2022-08-19T10:21:23;21.58;84.48
71436;SHT31;59251;51.326;12.370;2022-08-19T10:23:51;22.21;81.69
71436;SHT31;59251;51.326;12.370;2022-08-19T10:26:25;22.00;81.75
71436;SHT31;59251;51.326;12.370;2022-08-19T10:28:51;21.76;83.35
71436;SHT31;59251;51.326;12.370;2022-08-19T10:31:19;21.88;82.70
71436;SHT31;59251;51.326;12.370;2022-08-19T10:33:47;21.72;83.54
71436;SHT31;59251;51.326;12.370;2022-08-19T10:36:24;21.80;83.20
71436;SHT31;59251;51.326;12.370;2022-08-19T10:38:52;22.22;81.35
71436;SHT31;59251;51.326;12.370;2022-08-19T10:41:21;22.07;81.98
71436;SHT31;59251;51.326;12.370;2022-08-19T10:43:54;21.55;83.76
71436;SHT31;59251;51.326;12.370;2022-08-19T10:46:21;21.92;81.71
71436;SHT31;59251;51.326;12.370;2022-08-19T10:48:48;21.22;83.04
71436;SHT31;59251;51.326;12.370;2022-08-19T10:51:14;21.82;82.29
71436;SHT31;59251;51.326;12.370;2022-08-19T10:53:59;21.61;83.31
71436;SHT31;59251;51.326;12.370;2022-08-19T10:56:26;21.90;81.41
71436;SHT31;59251;51.326;12.370;2022-08-19T10:59:10;21.82;81.77
71436;SHT31;59251;51.326;12.370;2022-08-19T11:01:37;21.83;81.56
71436;SHT31;59251;51.326;12.370;2022-08-19T11:04:03;21.94;81.69
71436;SHT31;59251;51.326;12.370;2022-08-19T11:06:31;22.10;81.05
71436;SHT31;59251;51.326;12.370;2022-08-19T11:08:57;21.43;82.24
71436;SHT31;59251;51.326;12.370;2022-08-19T11:11:23;21.58;82.06
71436;SHT31;59251;51.326;12.370;2022-08-19T11:13:48;21.52;81.92
71436;SHT31;59251;51.326;12.370;2022-08-19T11:16:20;21.12;82.85
71436;SHT31;59251;51.326;12.370;2022-08-19T11:18:52;21.65;81.68
71436;SHT31;59251;51.326;12.370;2022-08-19T11:21:30;21.88;80.93
71436;SHT31;59251;51.326;12.370;2022-08-19T11:24:00;22.10;80.01
71436;SHT31;59251;51.326;12.370;2022-08-19T11:26:28;22.09;80.11
71436;SHT31;59251;51.326;12.370;2022-08-19T11:28:58;21.56;80.29
71436;SHT31;59251;51.326;12.370;2022-08-19T11:31:29;21.75;80.14
71436;SHT31;59251;51.326;12.370;2022-08-19T11:33:57;22.47;77.98
71436;SHT31;59251;51.326;12.370;2022-08-19T11:36:23;22.65;77.32
71436;SHT31;59251;51.326;12.370;2022-08-19T11:38:50;22.48;77.83
71436;SHT31;59251;51.326;12.370;2022-08-19T11:41:18;23.20;75.82
71436;SHT31;59251;51.326;12.370;2022-08-19T11:43:44;22.92;76.35
71436;SHT31;59251;51.326;12.370;2022-08-19T11:46:12;22.54;77.58
71436;SHT31;59251;51.326;12.370;2022-08-19T11:48:39;23.03;75.73
71436;SHT31;59251;51.326;12.370;2022-08-19T11:51:08;22.88;75.90
71436;SHT31;59251;51.326;12.370;2022-08-19T11:53:34;22.86;76.82
71436;SHT31;59251;51.326;12.370;2022-08-19T11:56:00;22.69;77.18
71436;SHT31;59251;51.326;12.370;2022-08-19T11:58:25;23.22;75.70
71436;SHT31;59251;51.326;12.370;2022-08-19T12:00:52;22.81;75.58
71436;SHT31;59251;51.326;12.370;2022-08-19T12:03:17;22.37;77.65
71436;SHT31;59251;51.326;12.370;2022-08-19T12:05:45;22.95;76.06
71436;SHT31;59251;51.326;12.370;2022-08-19T12:08:11;22.47;76.99
71436;SHT31;59251;51.326;12.370;2022-08-19T12:10:39;22.86;75.73
71436;SHT31;59251;51.326;12.370;2022-08-19T12:13:05;23.33;73.43
71436;SHT31;59251;51.326;12.370;2022-08-19T12:15:36;23.07;73.35
71436;SHT31;59251;51.326;12.370;2022-08-19T12:18:03;24.10;71.98
71436;SHT31;59251;51.326;12.370;2022-08-19T12:20:29;24.26;70.80
71436;SHT31;59251;51.326;12.370;2022-08-19T12:22:54;24.08;69.88
71436;SHT31;59251;51.326;12.370;2022-08-19T12:25:20;26.32;64.90
71436;SHT31;59251;51.326;12.370;2022-08-19T12:27:46;25.50;66.99
71436;SHT31;59251;51.326;12.370;2022-08-19T12:30:12;24.83;66.45
71436;SHT31;59251;51.326;12.370;2022-08-19T12:32:39;23.99;71.55
71436;SHT31;59251;51.326;12.370;2022-08-19T12:35:06;24.56;69.59
71436;SHT31;59251;51.326;12.370;2022-08-19T12:37:32;24.44;69.98
71436;SHT31;59251;51.326;12.370;2022-08-19T12:39:57;25.81;65.60
71436;SHT31;59251;51.326;12.370;2022-08-19T12:42:23;25.53;66.66
71436;SHT31;59251;51.326;12.370;2022-08-19T12:44:48;25.83;65.93
71436;SHT31;59251;51.326;12.370;2022-08-19T12:47:14;25.84;66.29
71436;SHT31;59251;51.326;12.370;2022-08-19T12:49:40;24.85;68.97
71436;SHT31;59251;51.326;12.370;2022-08-19T12:52:07;25.62;65.91
71436;SHT31;59251;51.326;12.370;2022-08-19T12:54:35;25.86;66.35
71436;SHT31;59251;51.326;12.370;2022-08-19T12:57:05;25.63;66.31
71436;SHT31;59251;51.326;12.370;2022-08-19T12:59:30;26.07;65.05
71436;SHT31;59251;51.326;12.370;2022-08-19T13:01:55;25.93;65.67
71436;SHT31;59251;51.326;12.370;2022-08-19T13:04:21;26.37;64.57
71436;SHT31;59251;51.326;12.370;2022-08-19T13:06:46;25.72;66.22
71436;SHT31;59251;51.326;12.370;2022-08-19T13:09:12;24.90;68.70
71436;SHT31;59251;51.326;12.370;2022-08-19T13:11:37;25.16;67.32
71436;SHT31;59251;51.326;12.370;2022-08-19T13:14:03;24.84;68.96
71436;SHT31;59251;51.326;12.370;2022-08-19T13:16:29;25.46;67.20
71436;SHT31;59251;51.326;12.370;2022-08-19T13:18:55;25.31;67.41
71436;SHT31;59251;51.326;12.370;2022-08-19T13:21:26;24.29;70.40
71436;SHT31;59251;51.326;12.370;2022-08-19T13:23:53;24.29;69.91
71436;SHT31;59251;51.326;12.370;2022-08-19T13:26:19;24.30;70.56
71436;SHT31;59251;51.326;12.370;2022-08-19T13:28:45;24.23;70.04
71436;SHT31;59251;51.326;12.370;2022-08-19T13:31:32;24.83;68.84
71436;SHT31;59251;51.326;12.370;2022-08-19T13:34:18;24.19;70.17
71436;SHT31;59251;51.326;12.370;2022-08-19T13:36:45;23.17;73.78
71436;SHT31;59251;51.326;12.370;2022-08-19T13:39:11;23.55;73.17
71436;SHT31;59251;51.326;12.370;2022-08-19T13:41:37;23.89;72.70
71436;SHT31;59251;51.326;12.370;2022-08-19T13:44:07;24.05;71.81
71436;SHT31;59251;51.326;12.370;2022-08-19T13:46:33;24.19;71.57
71436;SHT31;59251;51.326;12.370;2022-08-19T13:48:58;23.53;73.26
71436;SHT31;59251;51.326;12.370;2022-08-19T13:51:24;24.04;71.97
71436;SHT31;59251;51.326;12.370;2022-08-19T13:53:49;24.01;71.75
71436;SHT31;59251;51.326;12.370;2022-08-19T13:56:17;23.67;72.15
71436;SHT31;59251;51.326;12.370;2022-08-19T13:58:45;23.43;73.43
71436;SHT31;59251;51.326;12.370;2022-08-19T14:01:11;23.79;72.17
71436;SHT31;59251;51.326;12.370;2022-08-19T14:03:37;23.16;74.30
71436;SHT31;59251;51.326;12.370;2022-08-19T14:06:03;22.66;76.11
71436;SHT31;59251;51.326;12.370;2022-08-19T14:08:28;23.31;73.66
71436;SHT31;59251;51.326;12.370;2022-08-19T14:10:57;23.13;74.86
71436;SHT31;59251;51.326;12.370;2022-08-19T14:13:23;22.85;75.44
71436;SHT31;59251;51.326;12.370;2022-08-19T14:15:49;23.03;74.83
71436;SHT31;59251;51.326;12.370;2022-08-19T14:18:16;23.40;73.77
71436;SHT31;59251;51.326;12.370;2022-08-19T14:20:42;22.75;75.45
71436;SHT31;59251;51.326;12.370;2022-08-19T14:23:08;22.98;74.75
71436;SHT31;59251;51.326;12.370;2022-08-19T14:25:34;23.49;72.75
71436;SHT31;59251;51.326;12.370;2022-08-19T14:28:00;23.16;74.27
71436;SHT31;59251;51.326;12.370;2022-08-19T14:30:33;23.58;72.99
71436;SHT31;59251;51.326;12.370;2022-08-19T14:33:00;23.64;72.90
71436;SHT31;59251;51.326;12.370;2022-08-19T14:35:28;23.30;74.28
71436;SHT31;59251;51.326;12.370;2022-08-19T14:37:55;23.03;75.04
71436;SHT31;59251;51.326;12.370;2022-08-19T14:40:24;22.94;75.02
71436;SHT31;59251;51.326;12.370;2022-08-19T14:43:01;23.17;74.27
71436;SHT31;59251;51.326;12.370;2022-08-19T14:45:36;22.78;75.32
71436;SHT31;59251;51.326;12.370;2022-08-19T14:48:05;22.69;75.28
71436;SHT31;59251;51.326;12.370;2022-08-19T14:50:33;22.62;74.94
71436;SHT31;59251;51.326;12.370;2022-08-19T14:53:08;23.09;73.93
71436;SHT31;59251;51.326;12.370;2022-08-19T14:55:34;23.54;72.81
71436;SHT31;59251;51.326;12.370;2022-08-19T14:58:00;23.51;72.38
71436;SHT31;59251;51.326;12.370;2022-08-19T15:00:26;23.70;71.75
71436;SHT31;59251;51.326;12.370;2022-08-19T15:02:51;23.46;72.43
71436;SHT31;59251;51.326;12.370;2022-08-19T15:05:18;23.55;71.50
71436;SHT31;59251;51.326;12.370;2022-08-19T15:07:44;23.19;73.13
71436;SHT31;59251;51.326;12.370;2022-08-19T15:10:12;23.43;72.54
71436;SHT31;59251;51.326;12.370;2022-08-19T15:12:38;23.31;72.54
71436;SHT31;59251;51.326;12.370;2022-08-19T15:15:10;23.23;73.43
71436;SHT31;59251;51.326;12.370;2022-08-19T15:17:37;22.73;74.37
71436;SHT31;59251;51.326;12.370;2022-08-19T15:20:04;22.92;74.33
71436;SHT31;59251;51.326;12.370;2022-08-19T15:22:30;22.48;76.01
71436;SHT31;59251;51.326;12.370;2022-08-19T15:24:55;22.71;75.23
71436;SHT31;59251;51.326;12.370;2022-08-19T15:27:21;22.94;74.36
71436;SHT31;59251;51.326;12.370;2022-08-19T15:29:46;22.76;74.68
71436;SHT31;59251;51.326;12.370;2022-08-19T15:32:12;22.95;74.13
71436;SHT31;59251;51.326;12.370;2022-08-19T15:34:37;22.54;75.15
71436;SHT31;59251;51.326;12.370;2022-08-19T15:37:03;22.73;74.67
71436;SHT31;59251;51.326;12.370;2022-08-19T15:39:31;22.62;75.34